Fallbrook, California
Current Conditions -  °F | °C
As of 3:15 PM on Wednesday 26 Nov 2014 (Local Time) from KL18 Reporting Station
Clear Clear  
Wind Chill: 86°   Ceiling: Unl
Heat Index: 86°   Visibility: 10mi
Dew Point: 25°   Wind: 3mph
Humidity: 11%   Direction: 220°SW
Pressure: 30.13"   Gusts: NA
Location:  33.38°N, 117.25°W
Report Text: KL18 262315Z AUTO 22003KT 10SM CLR 30/M04 A3013 RMK AO2
Loading
Personal Weather Stations






























Interactive Weather Map New forecast layout! Learn more

10-Day Weather Forecast

Advertisements
Track Severe Weather on mobile